createdAt,value
2023-10-19T00:00:49.340Z,20.50
2023-10-19T00:03:19.623Z,19.60
2023-10-19T00:05:47.452Z,19.90
2023-10-19T00:08:14.246Z,16.30
2023-10-19T00:10:43.771Z,20.20
2023-10-19T00:13:14.535Z,17.90
2023-10-19T00:15:49.069Z,17.50
2023-10-19T00:18:16.280Z,18.50
2023-10-19T00:20:46.704Z,19.50
2023-10-19T00:23:14.496Z,20.30
2023-10-19T00:25:45.055Z,19.50
2023-10-19T00:28:15.886Z,20.10
2023-10-19T00:30:43.102Z,18.40
2023-10-19T00:33:21.648Z,19.20
2023-10-19T00:36:00.349Z,21.50
2023-10-19T00:38:28.315Z,23.60
2023-10-19T00:40:59.663Z,19.30
2023-10-19T00:43:29.498Z,20.80
2023-10-19T00:45:58.979Z,20.70
2023-10-19T00:48:26.657Z,20.90
2023-10-19T00:51:03.963Z,22.40
2023-10-19T00:53:30.658Z,18.60
2023-10-19T00:56:01.567Z,24.20
2023-10-19T00:58:30.995Z,20.40
2023-10-19T01:01:00.361Z,18.90
2023-10-19T01:03:32.897Z,17.10
2023-10-19T01:06:01.447Z,17.10
2023-10-19T01:08:36.536Z,17.60
2023-10-19T01:11:15.716Z,18.40
2023-10-19T01:13:45.292Z,19.80
2023-10-19T01:16:21.451Z,19.30
2023-10-19T01:18:54.149Z,19.90
2023-10-19T01:21:28.062Z,19.70
2023-10-19T01:23:55.752Z,20.10
2023-10-19T01:26:22.876Z,21.10
2023-10-19T01:28:52.321Z,16.20
2023-10-19T01:31:23.406Z,17.50
2023-10-19T01:33:50.981Z,22.00
2023-10-19T01:36:26.877Z,19.60
2023-10-19T01:39:01.138Z,22.40
2023-10-19T01:41:28.383Z,20.00
2023-10-19T01:43:55.210Z,19.20
2023-10-19T01:46:25.825Z,19.30
2023-10-19T01:48:57.041Z,17.00
2023-10-19T01:51:25.395Z,18.40
2023-10-19T01:53:51.844Z,18.00
2023-10-19T01:56:18.576Z,19.30
2023-10-19T01:58:49.150Z,20.20
2023-10-19T02:01:29.003Z,19.40
2023-10-19T02:04:00.011Z,21.50
2023-10-19T02:06:29.345Z,19.20
2023-10-19T02:09:01.323Z,15.40
2023-10-19T02:11:29.129Z,17.00
2023-10-19T02:14:00.304Z,20.30
2023-10-19T02:16:30.049Z,21.20
2023-10-19T02:18:57.130Z,22.40
2023-10-19T02:21:27.543Z,18.00
2023-10-19T02:23:54.160Z,21.20
2023-10-19T02:26:30.042Z,22.50
2023-10-19T02:28:56.812Z,19.00
2023-10-19T02:31:24.055Z,17.00
2023-10-19T02:34:03.448Z,19.30
2023-10-19T02:36:31.344Z,23.20
2023-10-19T02:39:12.245Z,17.80
2023-10-19T02:41:40.418Z,20.70
2023-10-19T02:44:23.413Z,22.80
2023-10-19T02:47:01.656Z,22.50
2023-10-19T02:49:36.551Z,17.60
2023-10-19T02:52:06.217Z,20.10
2023-10-19T02:54:36.131Z,21.10
2023-10-19T02:57:07.122Z,21.00
2023-10-19T02:59:33.715Z,25.60
2023-10-19T03:02:12.892Z,18.30
2023-10-19T03:04:42.335Z,18.00
2023-10-19T03:07:10.437Z,18.40
2023-10-19T03:09:36.939Z,18.90
2023-10-19T03:12:04.812Z,24.50
2023-10-19T03:14:33.059Z,19.40
2023-10-19T03:17:00.903Z,29.80
2023-10-19T03:19:28.916Z,21.10
2023-10-19T03:21:55.785Z,22.70
2023-10-19T03:24:42.382Z,19.60
2023-10-19T03:27:17.408Z,21.20
2023-10-19T03:30:01.129Z,41.00
2023-10-19T03:32:28.175Z,29.40
2023-10-19T03:34:56.634Z,23.10
2023-10-19T03:37:29.716Z,20.60
2023-10-19T03:39:59.067Z,21.60
2023-10-19T03:42:40.578Z,21.20
2023-10-19T03:45:14.486Z,22.70
2023-10-19T03:47:45.570Z,22.90
2023-10-19T03:50:16.099Z,24.60
2023-10-19T03:52:42.958Z,24.10
2023-10-19T03:55:15.921Z,24.80
2023-10-19T03:57:47.049Z,25.50
2023-10-19T04:00:17.233Z,22.90
2023-10-19T04:02:44.214Z,21.40
2023-10-19T04:05:21.039Z,23.00
2023-10-19T04:07:50.499Z,23.00
2023-10-19T04:10:35.182Z,26.50
2023-10-19T04:13:02.262Z,25.80
2023-10-19T04:15:36.105Z,22.80
2023-10-19T04:18:10.155Z,25.80
2023-10-19T04:20:53.604Z,22.90
2023-10-19T04:23:21.736Z,23.70
2023-10-19T04:25:48.638Z,22.30
2023-10-19T04:28:15.653Z,25.80
2023-10-19T04:30:42.407Z,22.80
2023-10-19T04:33:11.692Z,22.10
2023-10-19T04:35:38.482Z,25.40
2023-10-19T04:38:06.983Z,26.10
2023-10-19T04:40:34.511Z,27.90
2023-10-19T04:43:03.663Z,25.20
2023-10-19T04:45:30.437Z,23.90
2023-10-19T04:47:56.972Z,27.00
2023-10-19T04:50:23.580Z,25.00
2023-10-19T04:52:50.131Z,26.60
2023-10-19T04:55:17.255Z,23.90
2023-10-19T04:57:43.913Z,27.70
2023-10-19T05:00:15.052Z,21.40
2023-10-19T05:02:42.649Z,27.50
2023-10-19T05:05:09.816Z,24.30
2023-10-19T05:07:36.498Z,25.80
2023-10-19T05:10:05.856Z,27.80
2023-10-19T05:12:32.879Z,24.00
2023-10-19T05:14:59.437Z,30.80
2023-10-19T05:17:27.845Z,26.80
2023-10-19T05:19:54.797Z,25.70
2023-10-19T05:22:22.253Z,26.60
2023-10-19T05:24:48.979Z,25.70
2023-10-19T05:27:17.272Z,25.70
2023-10-19T05:29:44.322Z,26.90
2023-10-19T05:32:11.067Z,34.50
2023-10-19T05:34:37.918Z,31.30
2023-10-19T05:37:06.102Z,26.50
2023-10-19T05:39:34.175Z,29.10
2023-10-19T05:42:04.880Z,26.30
2023-10-19T05:44:31.682Z,28.30
2023-10-19T05:47:02.782Z,26.00
2023-10-19T05:49:32.979Z,30.90
2023-10-19T05:51:59.654Z,25.20
2023-10-19T05:54:27.674Z,27.80
2023-10-19T05:56:54.432Z,33.30
2023-10-19T05:59:21.401Z,26.80
2023-10-19T06:01:48.665Z,23.10
2023-10-19T06:04:15.933Z,30.60
2023-10-19T06:06:44.177Z,22.90
2023-10-19T06:09:10.715Z,25.50
2023-10-19T06:11:38.974Z,29.80
2023-10-19T06:14:08.112Z,27.30
2023-10-19T06:16:35.034Z,26.40
2023-10-19T06:19:01.917Z,29.70
2023-10-19T06:21:28.950Z,30.70
2023-10-19T06:23:55.936Z,31.30
2023-10-19T06:26:22.600Z,33.50
2023-10-19T06:28:51.523Z,30.20
2023-10-19T06:31:18.294Z,33.20
2023-10-19T06:33:44.916Z,31.30
2023-10-19T06:36:11.496Z,30.20
2023-10-19T06:38:38.023Z,27.70
2023-10-19T06:41:14.597Z,27.30
2023-10-19T06:43:41.517Z,25.50
2023-10-19T06:46:11.925Z,30.40
2023-10-19T06:48:39.482Z,28.90
2023-10-19T06:51:06.631Z,31.70
2023-10-19T06:53:33.589Z,34.10
2023-10-19T06:56:01.254Z,35.00
2023-10-19T06:58:28.132Z,31.10
2023-10-19T07:00:57.568Z,30.40
2023-10-19T07:03:24.643Z,32.60
2023-10-19T07:05:52.725Z,28.70
2023-10-19T07:08:21.613Z,33.50
2023-10-19T07:10:50.358Z,27.00
2023-10-19T07:13:16.996Z,29.60
2023-10-19T07:15:46.430Z,29.40
2023-10-19T07:18:14.545Z,36.90
2023-10-19T07:20:43.255Z,37.80
2023-10-19T07:23:19.670Z,38.80
2023-10-19T07:25:48.614Z,33.10
2023-10-19T07:28:16.638Z,28.20
2023-10-19T07:30:44.327Z,34.70
2023-10-19T07:33:11.799Z,33.20
2023-10-19T07:35:39.621Z,29.60
2023-10-19T07:38:08.217Z,29.80
2023-10-19T07:40:35.967Z,33.60
2023-10-19T07:43:04.364Z,34.20
2023-10-19T08:37:15.846Z,15.40
2023-10-19T08:39:44.126Z,17.10
2023-10-19T08:42:11.071Z,21.10
2023-10-19T08:44:39.420Z,18.80
2023-10-19T08:47:06.376Z,24.80
2023-10-19T08:49:33.506Z,18.60
2023-10-19T08:52:00.552Z,16.20
2023-10-19T08:54:28.190Z,15.40
2023-10-19T08:56:56.269Z,15.40
2023-10-19T08:59:23.941Z,14.70
2023-10-19T09:01:51.054Z,13.10
2023-10-19T09:04:17.983Z,16.60
2023-10-19T09:06:46.086Z,18.40
2023-10-19T09:09:21.928Z,17.60
2023-10-19T09:11:48.887Z,17.50
2023-10-19T09:14:18.594Z,19.30
2023-10-19T09:16:58.309Z,15.70
2023-10-19T09:19:48.283Z,15.40
2023-10-19T09:22:23.270Z,17.00
2023-10-19T09:24:50.594Z,13.00
2023-10-19T09:27:18.007Z,13.40
2023-10-19T09:29:45.735Z,20.90
2023-10-19T09:32:14.170Z,15.90
2023-10-19T09:34:44.243Z,15.80
2023-10-19T09:37:11.931Z,14.70
2023-10-19T09:39:38.744Z,14.30
2023-10-19T09:42:11.807Z,11.90
2023-10-19T09:44:41.821Z,14.90
2023-10-19T09:47:20.084Z,14.70
2023-10-19T09:49:50.675Z,14.40
2023-10-19T09:58:15.110Z,11.50
2023-10-19T10:00:50.873Z,12.70
2023-10-19T10:03:43.863Z,10.20
2023-10-19T10:06:12.732Z,10.50
2023-10-19T10:08:40.068Z,14.80
2023-10-19T10:11:17.482Z,10.30
2023-10-19T10:13:45.908Z,12.50
2023-10-19T10:16:15.814Z,11.50
2023-10-19T10:18:44.933Z,10.40
2023-10-19T10:21:13.187Z,10.40
2023-10-19T10:23:44.867Z,9.80
2023-10-19T10:26:15.289Z,11.00
2023-10-19T10:28:42.628Z,10.70
2023-10-19T10:31:21.280Z,9.30
2023-10-19T10:33:50.522Z,11.80
2023-10-19T10:36:20.218Z,10.40
2023-10-19T10:38:51.374Z,12.20
2023-10-19T10:41:22.633Z,13.80
2023-10-19T10:43:54.294Z,9.20
2023-10-19T10:46:22.506Z,9.80
2023-10-19T10:48:49.665Z,9.30
2023-10-19T10:51:29.382Z,9.50
2023-10-19T10:53:57.128Z,9.80
2023-10-19T10:56:24.423Z,10.80
2023-10-19T10:58:51.668Z,12.20
2023-10-19T11:01:33.413Z,9.20
2023-10-19T11:04:08.360Z,12.70
2023-10-19T11:06:49.763Z,10.20
2023-10-19T11:09:20.287Z,10.00
2023-10-19T11:11:47.212Z,9.50
2023-10-19T11:14:14.218Z,8.80
2023-10-19T11:16:41.308Z,9.10
2023-10-19T11:19:10.001Z,10.90
2023-10-19T11:21:36.739Z,12.10
2023-10-19T11:24:03.820Z,13.30
2023-10-19T11:26:30.905Z,10.90
2023-10-19T11:29:04.793Z,10.00
2023-10-19T11:31:38.379Z,13.20
2023-10-19T11:34:05.446Z,11.60
2023-10-19T11:36:35.028Z,11.50
2023-10-19T11:39:04.999Z,10.60
2023-10-19T11:41:32.051Z,12.90
2023-10-19T11:43:59.173Z,11.50
2023-10-19T11:46:26.039Z,13.10
2023-10-19T11:48:53.062Z,11.40
2023-10-19T11:51:19.863Z,12.20
2023-10-19T11:53:46.571Z,10.50
2023-10-19T11:56:30.532Z,12.20
2023-10-19T11:58:57.378Z,11.00
2023-10-19T12:01:25.783Z,10.60
2023-10-19T12:03:52.612Z,13.60
2023-10-19T12:06:19.684Z,11.40
2023-10-19T12:08:46.633Z,13.20
2023-10-19T12:11:17.227Z,13.70
2023-10-19T12:13:44.108Z,9.50
2023-10-19T12:16:16.280Z,10.00
2023-10-19T12:18:44.099Z,10.60
2023-10-19T12:21:18.430Z,8.70
2023-10-19T12:23:45.254Z,11.10
2023-10-19T12:26:12.207Z,10.90
2023-10-19T12:28:40.057Z,14.90
2023-10-19T12:31:09.486Z,9.60
2023-10-19T12:33:37.229Z,12.40
2023-10-19T12:36:22.853Z,10.60
2023-10-19T12:38:50.345Z,10.50
2023-10-19T12:41:17.911Z,10.20
2023-10-19T12:43:44.496Z,14.70
2023-10-19T12:46:13.295Z,13.00
2023-10-19T12:48:43.521Z,12.00
2023-10-19T12:51:12.061Z,12.80
2023-10-19T12:53:41.960Z,14.50
2023-10-19T12:56:10.811Z,15.00
2023-10-19T12:58:38.642Z,13.70
2023-10-19T13:01:17.912Z,13.00
2023-10-19T13:03:49.922Z,14.60
2023-10-19T13:06:17.455Z,13.80
2023-10-19T13:08:44.302Z,16.40
2023-10-19T13:11:18.036Z,13.70
2023-10-19T13:13:47.012Z,16.00
2023-10-19T13:16:15.563Z,13.60
2023-10-19T13:18:42.427Z,20.40
2023-10-19T13:21:17.291Z,15.70
2023-10-19T13:23:44.811Z,14.80
2023-10-19T13:26:18.063Z,14.00
2023-10-19T13:28:45.385Z,24.50
2023-10-19T13:31:14.496Z,14.80
2023-10-19T13:33:42.488Z,17.50
2023-10-19T13:36:09.497Z,17.50
2023-10-19T13:38:36.178Z,12.80
2023-10-19T13:41:10.545Z,13.70
2023-10-19T13:43:40.765Z,14.80
2023-10-19T13:46:07.705Z,16.00
2023-10-19T13:48:34.640Z,13.70
2023-10-19T13:51:01.357Z,17.80
2023-10-19T13:53:28.184Z,16.50
2023-10-19T13:55:55.699Z,14.30
2023-10-19T13:58:23.837Z,12.10
2023-10-19T14:00:50.597Z,12.80
2023-10-19T14:03:17.494Z,12.60
2023-10-19T14:05:48.833Z,14.30
2023-10-19T14:08:17.073Z,15.40
2023-10-19T14:10:44.043Z,13.40
2023-10-19T14:13:11.978Z,14.10
2023-10-19T14:15:39.280Z,14.80
2023-10-19T14:18:06.220Z,15.40
2023-10-19T14:20:34.565Z,15.80
2023-10-19T14:23:03.138Z,17.50
2023-10-19T14:25:30.011Z,12.70
2023-10-19T14:27:59.926Z,14.70
2023-10-19T14:30:28.927Z,17.20
2023-10-19T14:32:55.726Z,18.10
2023-10-19T14:35:23.717Z,21.70
2023-10-19T14:37:55.133Z,18.10
2023-10-19T14:40:26.500Z,20.70
2023-10-19T14:42:56.202Z,20.10
2023-10-19T14:45:32.916Z,16.20
2023-10-19T14:48:03.183Z,21.30
2023-10-19T14:50:30.848Z,20.90
2023-10-19T14:52:57.748Z,19.20
2023-10-19T14:55:25.035Z,17.60
2023-10-19T14:57:54.044Z,20.70
2023-10-19T15:00:26.737Z,21.40
2023-10-19T15:03:00.912Z,19.70
2023-10-19T15:05:28.932Z,16.40
2023-10-19T15:07:58.792Z,16.80
2023-10-19T15:10:26.736Z,17.50
2023-10-19T15:12:54.083Z,17.60
2023-10-19T15:15:21.510Z,17.00
2023-10-19T15:17:48.460Z,16.60
2023-10-19T15:20:15.772Z,18.80
2023-10-19T15:22:44.150Z,18.80
2023-10-19T15:25:12.763Z,18.80
2023-10-19T15:27:40.749Z,16.00
2023-10-19T15:30:08.435Z,21.10
2023-10-19T15:32:39.007Z,17.40
2023-10-19T15:35:06.076Z,19.00
2023-10-19T15:37:33.053Z,18.20
2023-10-19T15:39:59.902Z,22.70
2023-10-19T15:42:26.645Z,22.00
2023-10-19T15:44:53.321Z,21.70
2023-10-19T15:47:20.238Z,21.10
2023-10-19T15:49:52.622Z,21.80
2023-10-19T15:52:23.146Z,21.10
2023-10-19T15:54:51.049Z,23.50
2023-10-19T15:57:20.219Z,21.10
2023-10-19T15:59:47.217Z,22.40
2023-10-19T16:02:14.832Z,20.40
2023-10-19T16:04:42.481Z,24.80
2023-10-19T16:07:10.812Z,22.20
2023-10-19T16:09:38.190Z,24.20
2023-10-19T16:12:05.623Z,21.20
2023-10-19T16:14:32.695Z,18.70
2023-10-19T16:16:59.681Z,22.40
2023-10-19T16:19:26.595Z,23.50
2023-10-19T16:21:53.302Z,24.30
2023-10-19T16:24:19.963Z,20.60
2023-10-19T16:26:46.988Z,21.50
2023-10-19T16:29:17.086Z,19.70
2023-10-19T16:31:45.070Z,22.90
2023-10-19T16:34:13.023Z,19.20
2023-10-19T16:36:40.318Z,20.20
2023-10-19T16:39:13.513Z,18.80
2023-10-19T16:41:40.369Z,18.70
2023-10-19T16:44:07.720Z,19.30
2023-10-19T16:46:34.613Z,22.40
2023-10-19T16:49:01.355Z,21.60
2023-10-19T16:51:29.018Z,22.50
2023-10-19T16:53:57.385Z,23.20
2023-10-19T16:56:24.231Z,22.00
2023-10-19T16:58:50.974Z,21.30
2023-10-19T17:01:17.871Z,22.30
2023-10-19T17:03:45.442Z,19.40
2023-10-19T17:06:12.719Z,22.70
2023-10-19T17:08:40.490Z,20.10
2023-10-19T17:11:08.481Z,22.70
2023-10-19T17:13:36.352Z,20.80
2023-10-19T17:16:03.503Z,18.50
2023-10-19T17:18:30.536Z,24.10
2023-10-19T17:20:57.351Z,21.30
2023-10-19T17:23:24.350Z,19.30
2023-10-19T17:25:51.592Z,23.00
2023-10-19T17:28:18.455Z,24.00
2023-10-19T17:30:46.500Z,20.60
2023-10-19T17:33:13.761Z,19.40
2023-10-19T17:35:40.705Z,21.60
2023-10-19T17:38:09.033Z,21.30
2023-10-19T17:40:35.934Z,20.20
2023-10-19T17:43:02.844Z,22.00
2023-10-19T17:45:30.994Z,21.60
2023-10-19T17:47:57.953Z,23.00
2023-10-19T17:50:25.996Z,23.80
2023-10-19T17:52:52.988Z,24.90
2023-10-19T17:55:20.967Z,20.30
2023-10-19T17:57:50.991Z,19.50
2023-10-19T18:00:21.077Z,22.10
2023-10-19T18:02:48.471Z,23.90
2023-10-19T18:05:17.142Z,23.80
2023-10-19T18:07:44.624Z,22.60
2023-10-19T18:10:14.468Z,22.60
2023-10-19T18:12:41.346Z,19.90
2023-10-19T18:15:09.199Z,26.70
2023-10-19T18:17:36.272Z,27.10
2023-10-19T18:20:08.355Z,23.30
2023-10-19T18:22:36.614Z,23.40
2023-10-19T18:25:03.804Z,22.80
2023-10-19T18:27:30.847Z,22.20
2023-10-19T18:29:57.659Z,22.90
2023-10-19T18:32:24.502Z,20.20
2023-10-19T18:34:51.554Z,22.90
2023-10-19T18:37:18.293Z,23.10
2023-10-19T18:39:45.125Z,21.50
2023-10-19T18:42:12.063Z,21.30
2023-10-19T18:44:39.214Z,23.50
2023-10-19T18:47:06.345Z,24.20
2023-10-19T18:49:35.177Z,25.40
2023-10-19T18:52:07.655Z,29.40
2023-10-19T18:54:34.407Z,22.40
2023-10-19T18:57:01.226Z,24.60
2023-10-19T18:59:27.960Z,23.90
2023-10-19T19:01:54.894Z,23.50
2023-10-19T19:04:22.735Z,24.90
2023-10-19T19:06:49.582Z,23.70
2023-10-19T19:09:18.208Z,23.20
2023-10-19T19:11:46.570Z,24.80
2023-10-19T19:14:13.363Z,25.50
2023-10-19T19:16:40.917Z,26.40
2023-10-19T19:19:08.183Z,24.60
2023-10-19T19:21:35.726Z,32.70
2023-10-19T19:24:02.698Z,30.70
2023-10-19T19:26:29.620Z,33.30
2023-10-19T19:28:57.213Z,32.80
2023-10-19T19:31:24.495Z,31.20
2023-10-19T19:33:51.659Z,30.90
2023-10-19T19:36:18.522Z,29.40
2023-10-19T19:38:46.147Z,26.30
2023-10-19T19:41:13.627Z,25.10
2023-10-19T19:43:40.554Z,25.10
2023-10-19T19:46:07.666Z,22.80
2023-10-19T19:48:34.407Z,26.00
2023-10-19T19:51:01.265Z,25.80
2023-10-19T19:53:27.883Z,26.30
2023-10-19T19:55:54.445Z,25.10
2023-10-19T19:58:21.181Z,22.90
2023-10-19T20:00:47.725Z,24.40
2023-10-19T20:03:14.640Z,21.70
2023-10-19T20:05:42.637Z,26.30
2023-10-19T20:08:12.089Z,23.00
2023-10-19T20:10:43.397Z,26.30
2023-10-19T20:13:10.703Z,29.10
2023-10-19T20:15:39.428Z,27.00
2023-10-19T20:18:06.120Z,27.90
2023-10-19T20:20:33.905Z,28.20
2023-10-19T20:23:00.917Z,24.50
2023-10-19T20:25:28.411Z,26.70
2023-10-19T20:27:56.196Z,26.50
2023-10-19T20:30:23.554Z,26.40
2023-10-19T20:32:50.578Z,26.90
2023-10-19T20:35:18.319Z,25.80
2023-10-19T20:37:44.919Z,24.50
2023-10-19T20:40:20.060Z,26.10
2023-10-19T20:42:52.336Z,28.90
2023-10-19T20:45:19.180Z,26.40
2023-10-19T20:47:56.672Z,26.00
2023-10-19T20:50:24.242Z,23.50
2023-10-19T20:52:53.028Z,25.70
2023-10-19T20:55:20.007Z,29.10
2023-10-19T20:57:49.810Z,28.00
2023-10-19T21:00:16.981Z,25.50
2023-10-19T21:02:46.611Z,28.40
2023-10-19T21:05:19.118Z,30.40
2023-10-19T21:07:49.378Z,32.00
2023-10-19T21:10:19.127Z,29.70
2023-10-19T21:12:45.808Z,33.30
2023-10-19T21:15:13.268Z,36.00
2023-10-19T21:17:51.042Z,40.90
2023-10-19T21:20:18.683Z,34.80
2023-10-19T21:22:49.657Z,35.20
2023-10-19T21:25:17.836Z,31.90
2023-10-19T21:27:45.097Z,32.20
2023-10-19T21:30:13.601Z,28.10
2023-10-19T21:32:42.723Z,27.40
2023-10-19T21:35:10.180Z,28.50
2023-10-19T21:37:37.153Z,31.30
2023-10-19T21:40:06.380Z,28.60
2023-10-19T21:42:33.083Z,27.20
2023-10-19T21:44:59.825Z,27.10
2023-10-19T21:47:26.549Z,26.60
2023-10-19T21:49:53.829Z,26.50
2023-10-19T21:52:24.244Z,28.00
2023-10-19T21:54:51.406Z,24.90
2023-10-19T21:57:18.329Z,27.10
2023-10-19T21:59:45.471Z,26.60
2023-10-19T22:02:12.126Z,32.10
2023-10-19T22:04:38.898Z,28.00
2023-10-19T22:07:05.922Z,26.80
2023-10-19T22:12:18.049Z,30.90
2023-10-19T22:14:46.680Z,30.70
2023-10-19T22:17:16.632Z,32.90
2023-10-19T22:19:44.531Z,30.60
2023-10-19T22:22:13.176Z,29.20
2023-10-19T22:24:40.533Z,27.10
2023-10-19T22:27:08.225Z,29.50
2023-10-19T22:29:35.671Z,28.80
2023-10-19T22:32:08.541Z,25.70
2023-10-19T22:34:36.074Z,31.00
2023-10-19T22:37:04.433Z,29.40
2023-10-19T22:39:31.889Z,28.60
2023-10-19T22:41:59.309Z,29.50
2023-10-19T22:44:26.726Z,27.10
2023-10-19T22:46:54.287Z,26.10
2023-10-19T22:49:23.565Z,31.00
2023-10-19T22:51:50.929Z,27.70
2023-10-19T22:54:18.343Z,30.10
2023-10-19T22:56:45.786Z,28.00
2023-10-19T22:59:13.205Z,28.20
2023-10-19T23:01:41.311Z,31.40
2023-10-19T23:04:08.819Z,32.30
2023-10-19T23:06:36.419Z,30.30
2023-10-19T23:09:05.189Z,26.50
2023-10-19T23:11:32.800Z,28.70
2023-10-19T23:14:04.916Z,29.90
2023-10-19T23:16:37.430Z,28.00
2023-10-19T23:19:04.927Z,27.30
2023-10-19T23:21:34.303Z,29.80
2023-10-19T23:24:01.901Z,27.00
2023-10-19T23:26:30.773Z,30.50
2023-10-19T23:29:04.696Z,30.50
2023-10-19T23:31:34.856Z,30.60
2023-10-19T23:34:04.914Z,28.80
2023-10-19T23:36:32.539Z,27.60
2023-10-19T23:39:04.628Z,31.40
2023-10-19T23:41:32.150Z,30.40
2023-10-19T23:43:59.729Z,29.70
2023-10-19T23:46:27.650Z,30.30
2023-10-19T23:48:55.032Z,32.50
2023-10-19T23:51:22.701Z,30.80
2023-10-19T23:53:52.062Z,28.90
2023-10-19T23:56:20.199Z,27.90
2023-10-19T23:58:47.564Z,30.50
